WetterOnline ( https://www.wetteronline.ch )

Wetter aktuell Leck

Aktuelles Wetter: Leck (17m)

6-stündlich | Neueste Meldungen
Ortszeit Temperatur Wetter
Di, 02.06. 14:00 22.7° C leicht bewölkt
Di, 02.06. 8:00 16.3° C leicht bewölkt
Di, 02.06. 2:00 9.3° C wolkig
Mo, 01.06. 20:00 20.0° C wolkig
Mo, 01.06. 14:00 21.4° C leicht bewölkt
Mo, 01.06. 8:00 14.9° C wolkenlos
Mo, 01.06. 2:00 9.2° C leicht bewölkt
So, 31.05. 20:00 18.5° C leicht bewölkt
Ortszeit Temperatur Wetter
Di, 02.06. 19:30 21.4° C wolkig
Di, 02.06. 19:20 21.4° C wolkig
Di, 02.06. 19:10 21.7° C wolkig
Di, 02.06. 19:00 21.8° C leicht bewölkt
Di, 02.06. 18:50 21.8° C wolkig
Di, 02.06. 18:40 21.9° C wolkig
Di, 02.06. 18:30 22.3° C wolkig
Di, 02.06. 18:00 22.9° C leicht bewölkt
Di, 02.06. 17:30 23.4° C leicht bewölkt
Di, 02.06. 17:00 23.4° C wolkenlos
Di, 02.06. 16:30 23.1° C fast wolkenlos
Ortszeit Relative Feuchte Sichtweite
Di, 02.06. 14:00 35% 60 km
Di, 02.06. 8:00 64% >70 km
Di, 02.06. 2:00 81% 55 km
Mo, 01.06. 20:00 41% 60 km
Mo, 01.06. 14:00 37% 50 km
Mo, 01.06. 8:00 54% >70 km
Mo, 01.06. 2:00 76% 60 km
So, 31.05. 20:00 44% 65 km
Ortszeit Relative Feuchte Sichtweite
Di, 02.06. 19:30 40% 65 km
Di, 02.06. 19:20 40% -
Di, 02.06. 19:10 39% -
Di, 02.06. 19:00 39% 45 km
Di, 02.06. 18:50 39% -
Di, 02.06. 18:40 40% -
Di, 02.06. 18:30 39% 60 km
Di, 02.06. 18:00 39% 65 km
Di, 02.06. 17:30 35% 55 km
Di, 02.06. 17:00 36% >70 km
Di, 02.06. 16:30 38% 60 km
Ortszeit Niederschlagsmenge Niederschlagsart
Di, 02.06. 14:00 0.0 l/m2 in 6 Std. -
Di, 02.06. 8:00 0.0 l/m2 in 12 Std. -
Di, 02.06. 2:00 0.0 l/m2 in 6 Std. -
Mo, 01.06. 20:00 0.0 l/m2 in 12 Std. -
Mo, 01.06. 14:00 0.0 l/m2 in 6 Std. -
Mo, 01.06. 8:00 0.0 l/m2 in 12 Std. -
Mo, 01.06. 2:00 0.0 l/m2 in 6 Std. -
So, 31.05. 20:00 0.0 l/m2 in 12 Std. -
Ortszeit Niederschlagsmenge Niederschlagsart
Di, 02.06. 19:30 0.0 l/m2 in 1 Std. -
Di, 02.06. 19:20 keine Meldung -
Di, 02.06. 19:10 keine Meldung -
Di, 02.06. 19:00 0.0 l/m2 in 1 Std. -
Di, 02.06. 18:50 keine Meldung -
Di, 02.06. 18:40 keine Meldung -
Di, 02.06. 18:30 0.0 l/m2 in 1 Std. -
Di, 02.06. 18:00 0.0 l/m2 in 1 Std. -
Di, 02.06. 17:30 0.0 l/m2 in 1 Std. -
Di, 02.06. 17:00 0.0 l/m2 in 1 Std. -
Di, 02.06. 16:30 0.0 l/m2 in 1 Std. -
Ortszeit Stärke Spitze Richtung
km/h Bft. km/h Grad Sektor
Di, 02.06. 14:00 7 2 25 290° W
Di, 02.06. 8:00 4 1 11 90° O
Di, 02.06. 2:00 7 2 29 20° N
Mo, 01.06. 20:00 18 3 43 90° O
Mo, 01.06. 14:00 22 4 40 90° O
Mo, 01.06. 8:00 11 2 18 50° NO
Mo, 01.06. 2:00 6 1 22 80° O
So, 31.05. 20:00 19 3 48 80° O
Ortszeit Stärke Spitze Richtung
km/h Bft. km/h Grad Sektor
Di, 02.06. 19:30 13 3 17 320° NW
Di, 02.06. 19:20 13 3 - 320° NW
Di, 02.06. 19:10 11 2 - 320° NW
Di, 02.06. 19:00 13 3 26 320° NW
Di, 02.06. 18:50 13 3 - 320° NW
Di, 02.06. 18:40 14 3 - 320° NW
Di, 02.06. 18:30 15 3 22 310° NW
Di, 02.06. 18:00 14 3 22 300° NW
Di, 02.06. 17:30 13 3 20 290° W
Di, 02.06. 17:00 11 2 26 300° NW
Di, 02.06. 16:30 14 3 25 340° N
Ortszeit Untergrenze Bedeckung Gattung
total tief tief mittel hoch
Di, 02.06. 14:00 8700 m 3/8 0/8 - - -
Di, 02.06. 8:00 7200 m 8/8 0/8 - - -
Di, 02.06. 2:00 9000 m 8/8 0/8 - - -
Mo, 01.06. 20:00 9000 m 7/8 0/8 - - -
Mo, 01.06. 14:00 10500 m 8/8 0/8 - - -
Mo, 01.06. 8:00 10500 m 0/8 0/8 - - -
Mo, 01.06. 2:00 12000 m 6/8 0/8 - - -
So, 31.05. 20:00 7800 m 8/8 0/8 - - -
Ortszeit Bedeckungsgrad in Achtel und Wolkenuntergrenze
Di, 02.06. 19:30 8(8100m)
Di, 02.06. 19:20 8(8100m)
Di, 02.06. 19:10 6(8100m) 8(8700m)
Di, 02.06. 19:00 8(8700m)
Di, 02.06. 18:50 8(8700m)
Di, 02.06. 18:40 7(9000m) 8(9000m)
Di, 02.06. 18:30 8(9000m) 8(9000m)
Di, 02.06. 18:00 5(9000m) 7(9000m)
Di, 02.06. 17:30 3(9000m)
Di, 02.06. 17:00 keine Wolken
Di, 02.06. 16:30 2(7200m)
Ortszeit Luftdruck NN (hPa) Tendenz (hPa in 3 Std.)
Di, 02.06. 14:00 1019 - 2,3
Di, 02.06. 8:00 1022 - 0,7
Di, 02.06. 2:00 1024 - 0,7
Mo, 01.06. 20:00 1024 - 1,4
Mo, 01.06. 14:00 1027 - 1,2
Mo, 01.06. 8:00 1028 + 0,2
Mo, 01.06. 2:00 1028 + 0,4
So, 31.05. 20:00 1027 0,0
Ortszeit Luftdruck NN (hPa) Tendenz (hPa in 3 Std.)
Di, 02.06. 19:30 1015 - 2,1
Di, 02.06. 19:20 1015 keine Meldung
Di, 02.06. 19:10 1015 keine Meldung
Di, 02.06. 19:00 1015 - 2,3
Di, 02.06. 18:50 1015 keine Meldung
Di, 02.06. 18:40 1015 keine Meldung
Di, 02.06. 18:30 1015 - 2,6
Di, 02.06. 18:00 1016 - 2,6
Di, 02.06. 17:30 1016 - 2,7
Di, 02.06. 17:00 1016 - 2,6
Di, 02.06. 16:30 1017 - 2,6
Ortszeit Schneehöhe (cm)
Di, 02.06. 14:00 -
Di, 02.06. 8:00 -
Di, 02.06. 2:00 -
Mo, 01.06. 20:00 -
Mo, 01.06. 14:00 -
Mo, 01.06. 8:00 -
Mo, 01.06. 2:00 -
So, 31.05. 20:00 -
Ortszeit Schneehöhe (cm)
Di, 02.06. 19:30 -
Di, 02.06. 19:20 -
Di, 02.06. 19:10 -
Di, 02.06. 19:00 -
Di, 02.06. 18:50 -
Di, 02.06. 18:40 -
Di, 02.06. 18:30 -
Di, 02.06. 18:00 -
Di, 02.06. 17:30 -
Di, 02.06. 17:00 -
Di, 02.06. 16:30 -
Link zu dieser Seite / Seite empfehlen

Das Wetter in ...